Time;durP1;ratioP1;P1;durP2;ratioP2;P2;SDS_P1;SDS_P2;PMS_P1;PMS_P2;Temp;Humidity;BMP_temperature;BMP_pressure;BME280_temperature;BME280_humidity;BME280_pressure;Samples;Min_cycle;Max_cycle;Signal;HPM_P1;HPM_P2
2021/07/21 00:00:37;;;;;;;;;;;563.70;2432.00;;;;;;5072680;28;20314;-78
2021/07/21 00:03:03;;;;;;;;;;;563.70;2432.00;;;;;;5072639;28;19951;-79
2021/07/21 00:05:29;;;;;;;;;;;563.60;2432.00;;;;;;5072298;28;19944;-75
2021/07/21 00:07:55;;;;;;;;;;;563.60;2432.00;;;;;;5072551;28;20003;-74
2021/07/21 00:10:22;;;;;;;;;;;563.60;2432.00;;;;;;5072395;28;19904;-74
2021/07/21 00:15:35;;;;;;;;;;;563.50;2432.00;;;;;;5081543;28;20809;-75
2021/07/21 00:18:03;;;;;;;;;;;563.40;2432.00;;;;;;5076915;28;19991;-79
2021/07/21 00:20:32;;;;;;;;;;;563.40;2432.00;;;;;;5072410;28;19928;-79
2021/07/21 00:22:58;;;;;;;;;;;563.40;2432.00;;;;;;5072112;28;19988;-79
2021/07/21 00:25:24;;;;;;;;;;;563.30;2432.00;;;;;;5072360;28;20309;-79
2021/07/21 00:27:50;;;;;;;;;;;563.30;2432.00;;;;;;5072449;28;19908;-79
2021/07/21 00:30:17;;;;;;;;;;;563.30;2432.00;;;;;;5072081;28;19969;-77
2021/07/21 00:32:43;;;;;;;;;;;563.30;2432.00;;;;;;5054667;28;19905;-77
2021/07/21 00:35:13;;;;;;;;;;;563.30;2432.00;;;;;;5072228;28;19915;-79
2021/07/21 00:37:38;;;;;;;;;;;563.20;2432.00;;;;;;5072155;28;19987;-78
2021/07/21 00:40:05;;;;;;;;;;;563.20;2432.00;;;;;;5072037;28;19958;-74
2021/07/21 00:42:30;;;;;;;;;;;563.20;2432.00;;;;;;5074098;28;19912;-75
2021/07/21 00:44:56;;;;;;;;;;;563.20;2432.00;;;;;;5075655;28;19913;-79
2021/07/21 00:47:21;;;;;;;;;;;563.20;2432.00;;;;;;5076176;28;19991;-78
2021/07/21 00:49:47;;;;;;;;;;;538.50;2406.40;;;;;;5075838;28;20251;-77
2021/07/21 00:52:13;;;;;;;;;;;538.50;2406.40;;;;;;5075505;28;20374;-78
2021/07/21 00:54:39;;;;;;;;;;;538.50;2406.40;;;;;;5075698;28;20273;-78
2021/07/21 00:57:05;;;;;;;;;;;538.50;2406.40;;;;;;5075373;28;20274;-79
2021/07/21 00:59:34;;;;;;;;;;;538.40;2406.40;;;;;;5075605;28;19904;-79
2021/07/21 01:02:00;;;;;;;;;;;538.40;2406.40;;;;;;5075553;28;19970;-78
2021/07/21 01:04:28;;;;;;;;;;;538.30;2406.40;;;;;;5075242;28;20370;-79
2021/07/21 01:06:53;;;;;;;;;;;538.30;2406.40;;;;;;5075457;28;20375;-79
2021/07/21 01:09:19;;;;;;;;;;;538.20;2406.40;;;;;;5075076;28;19909;-74
2021/07/21 01:11:48;;;;;;;;;;;538.20;2406.40;;;;;;5057345;28;19904;-73
2021/07/21 01:14:43;;;;;;;;;;;538.30;2406.40;;;;;;5075101;28;19911;-78
2021/07/21 01:17:13;;;;;;;;;;;538.20;2406.40;;;;;;5053599;28;19952;-78
2021/07/21 01:19:39;;;;;;;;;;;538.20;2406.40;;;;;;5074975;28;19908;-78
2021/07/21 01:22:04;;;;;;;;;;;538.10;2406.40;;;;;;5075104;28;19904;-79
2021/07/21 01:24:49;;;;;;;;;;;538.10;2406.40;;;;;;5074939;28;19959;-80
2021/07/21 01:27:18;;;;;;;;;;;538.10;2406.40;;;;;;5075059;28;19912;-80
2021/07/21 01:29:45;;;;;;;;;;;538.00;2406.40;;;;;;5074864;28;19978;-80
2021/07/21 01:32:11;;;;;;;;;;;538.00;2406.40;;;;;;5075028;28;19904;-79
2021/07/21 01:34:37;;;;;;;;;;;538.00;2406.40;;;;;;5074939;28;19911;-79
2021/07/21 01:37:04;;;;;;;;;;;538.00;2406.40;;;;;;5074692;28;19908;-74
2021/07/21 01:39:31;;;;;;;;;;;538.00;2406.40;;;;;;5074777;28;19905;-75
2021/07/21 01:42:02;;;;;;;;;;;537.90;2406.40;;;;;;5074462;28;19911;-75
2021/07/21 01:44:29;;;;;;;;;;;537.90;2406.40;;;;;;5074603;28;19914;-75
2021/07/21 01:46:58;;;;;;;;;;;537.80;2406.40;;;;;;5074447;28;19904;-75
2021/07/21 01:49:26;;;;;;;;;;;537.90;2406.40;;;;;;5074653;28;19904;-74
2021/07/21 01:51:52;;;;;;;;;;;537.80;2406.40;;;;;;5074447;28;19904;-74
2021/07/21 01:54:18;;;;;;;;;;;537.80;2406.40;;;;;;5073286;28;19910;-74
2021/07/21 01:56:44;;;;;;;;;;;537.80;2406.40;;;;;;5084113;28;19908;-85
2021/07/21 01:59:11;;;;;;;;;;;537.80;2406.40;;;;;;5088571;28;19943;-80
2021/07/21 02:01:37;;;;;;;;;;;537.80;2406.40;;;;;;5080384;28;20279;-79
2021/07/21 02:04:03;;;;;;;;;;;537.70;2406.40;;;;;;5092924;28;19908;-80
2021/07/21 02:06:30;;;;;;;;;;;537.70;2406.40;;;;;;5081676;28;19908;-80
2021/07/21 02:08:57;;;;;;;;;;;537.70;2406.40;;;;;;5080711;28;19983;-75
2021/07/21 02:11:23;;;;;;;;;;;537.70;2406.40;;;;;;5073874;28;19905;-76
2021/07/21 02:13:49;;;;;;;;;;;537.60;2406.40;;;;;;5085832;28;19908;-77
2021/07/21 02:16:15;;;;;;;;;;;537.70;2406.40;;;;;;5090858;28;20278;-77
2021/07/21 02:18:41;;;;;;;;;;;537.60;2406.40;;;;;;5073919;28;19904;-75
2021/07/21 02:21:07;;;;;;;;;;;537.70;2406.40;;;;;;5073813;28;19911;-74
2021/07/21 02:23:36;;;;;;;;;;;537.60;2406.40;;;;;;5074021;28;19987;-74
2021/07/21 02:26:02;;;;;;;;;;;537.60;2406.40;;;;;;5073790;28;19905;-75
2021/07/21 02:28:29;;;;;;;;;;;512.90;2380.80;;;;;;5074101;28;19958;-74
2021/07/21 02:30:56;;;;;;;;;;;512.90;2380.80;;;;;;5085427;28;19923;-75
2021/07/21 02:33:24;;;;;;;;;;;512.90;2380.80;;;;;;5089718;28;20278;-73
2021/07/21 02:35:49;;;;;;;;;;;512.80;2380.80;;;;;;5073872;28;19912;-75
2021/07/21 02:38:15;;;;;;;;;;;512.80;2380.80;;;;;;5073465;28;20276;-76
2021/07/21 02:40:41;;;;;;;;;;;512.80;2380.80;;;;;;5073462;28;20366;-78
2021/07/21 02:43:07;;;;;;;;;;;512.80;2380.80;;;;;;5073459;28;19904;-77
2021/07/21 02:45:35;;;;;;;;;;;512.80;2380.80;;;;;;5073377;28;19908;-77
2021/07/21 02:48:02;;;;;;;;;;;512.80;2380.80;;;;;;5073377;28;19908;-77
2021/07/21 02:50:27;;;;;;;;;;;512.80;2380.80;;;;;;5073368;28;20362;-75
2021/07/21 02:52:55;;;;;;;;;;;512.70;2380.80;;;;;;5073330;28;19904;-77
2021/07/21 02:55:35;;;;;;;;;;;512.70;2380.80;;;;;;5073159;28;19948;-74
2021/07/21 02:58:03;;;;;;;;;;;512.60;2380.80;;;;;;5073270;28;19999;-73
2021/07/21 03:00:30;;;;;;;;;;;512.60;2380.80;;;;;;5073043;28;19908;-74
2021/07/21 03:02:56;;;;;;;;;;;512.60;2380.80;;;;;;5073133;28;19905;-74
2021/07/21 03:05:24;;;;;;;;;;;512.60;2380.80;;;;;;5086724;28;19908;-74
2021/07/21 03:07:55;;;;;;;;;;;512.60;2380.80;;;;;;5073196;28;19904;-74
2021/07/21 03:10:20;;;;;;;;;;;512.60;2380.80;;;;;;5073034;28;20324;-74
2021/07/21 03:12:49;;;;;;;;;;;512.50;2380.80;;;;;;5072916;28;19904;-74
2021/07/21 03:15:15;;;;;;;;;;;512.50;2380.80;;;;;;5073081;28;19948;-74
2021/07/21 03:17:42;;;;;;;;;;;512.40;2380.80;;;;;;5072813;28;19951;-74
2021/07/21 03:20:08;;;;;;;;;;;512.40;2380.80;;;;;;5073035;28;19943;-74
2021/07/21 03:22:35;;;;;;;;;;;512.40;2380.80;;;;;;5072894;28;19947;-74
2021/07/21 03:25:01;;;;;;;;;;;512.40;2380.80;;;;;;5072812;28;20362;-74
2021/07/21 03:27:27;;;;;;;;;;;512.40;2380.80;;;;;;5072756;28;20381;-73
2021/07/21 03:29:54;;;;;;;;;;;512.40;2380.80;;;;;;5072838;28;19916;-74
2021/07/21 03:32:22;;;;;;;;;;;512.40;2380.80;;;;;;5072785;28;20468;-74
2021/07/21 03:34:48;;;;;;;;;;;512.40;2380.80;;;;;;5072734;28;19904;-74
2021/07/21 03:37:14;;;;;;;;;;;512.20;2380.80;;;;;;5072836;28;19911;-74
2021/07/21 03:39:40;;;;;;;;;;;512.20;2380.80;;;;;;5072523;28;19995;-74
2021/07/21 03:42:07;;;;;;;;;;;512.20;2380.80;;;;;;5072852;28;19997;-74
2021/07/21 03:44:32;;;;;;;;;;;512.10;2380.80;;;;;;5072821;28;19908;-74
2021/07/21 03:46:58;;;;;;;;;;;512.10;2380.80;;;;;;5072929;28;19919;-74
2021/07/21 03:49:27;;;;;;;;;;;512.20;2380.80;;;;;;5072714;28;19904;-74
2021/07/21 03:51:52;;;;;;;;;;;512.20;2380.80;;;;;;5072527;28;19991;-74
2021/07/21 03:54:19;;;;;;;;;;;512.20;2380.80;;;;;;5072658;28;20004;-74
2021/07/21 03:56:45;;;;;;;;;;;512.20;2380.80;;;;;;5072622;28;19908;-74
2021/07/21 03:59:15;;;;;;;;;;;512.10;2380.80;;;;;;5072520;28;19996;-73
2021/07/21 04:01:42;;;;;;;;;;;512.10;2380.80;;;;;;5072242;28;19904;-76
2021/07/21 04:04:08;;;;;;;;;;;512.00;2380.80;;;;;;5077104;28;20270;-79
2021/07/21 04:06:37;;;;;;;;;;;512.00;2380.80;;;;;;5082390;28;19990;-78
2021/07/21 04:09:12;;;;;;;;;;;512.10;2380.80;;;;;;5072306;28;19905;-78
2021/07/21 04:11:40;;;;;;;;;;;512.00;2380.80;;;;;;5072903;28;19962;-79
2021/07/21 04:14:07;;;;;;;;;;;512.10;2380.80;;;;;;5072480;28;19939;-78
2021/07/21 04:16:33;;;;;;;;;;;512.20;2380.80;;;;;;5072949;28;19950;-78
2021/07/21 04:18:59;;;;;;;;;;;512.30;2380.80;;;;;;5076134;28;20003;-78
2021/07/21 04:21:26;;;;;;;;;;;512.40;2380.80;;;;;;5076208;28;19995;-73
2021/07/21 04:23:52;;;;;;;;;;;512.50;2380.80;;;;;;5076060;28;19919;-73
2021/07/21 04:26:18;;;;;;;;;;;512.60;2380.80;;;;;;5076030;28;19905;-73
2021/07/21 04:28:43;;;;;;;;;;;512.70;2380.80;;;;;;5075994;28;19911;-73
2021/07/21 04:31:09;;;;;;;;;;;512.80;2380.80;;;;;;5075873;28;19911;-74
2021/07/21 04:33:35;;;;;;;;;;;512.80;2380.80;;;;;;5076031;28;19908;-74
2021/07/21 04:36:01;;;;;;;;;;;512.90;2380.80;;;;;;5075852;28;19951;-74
2021/07/21 04:38:27;;;;;;;;;;;512.90;2380.80;;;;;;5075901;28;19905;-74
2021/07/21 04:40:53;;;;;;;;;;;537.60;2406.40;;;;;;5075866;28;19908;-74
2021/07/21 04:43:19;;;;;;;;;;;537.60;2406.40;;;;;;5075675;28;19915;-74
2021/07/21 04:45:45;;;;;;;;;;;537.60;2406.40;;;;;;5075728;28;19908;-74
2021/07/21 04:48:12;;;;;;;;;;;537.60;2406.40;;;;;;5075584;28;19966;-74
2021/07/21 04:50:38;;;;;;;;;;;537.60;2406.40;;;;;;5075734;28;20354;-75
2021/07/21 04:53:03;;;;;;;;;;;537.70;2406.40;;;;;;5075534;28;19953;-75
2021/07/21 04:55:29;;;;;;;;;;;537.80;2406.40;;;;;;5075422;28;19904;-74
2021/07/21 04:57:54;;;;;;;;;;;537.80;2406.40;;;;;;5075569;28;19914;-73
2021/07/21 05:00:20;;;;;;;;;;;537.90;2406.40;;;;;;5075419;28;20366;-74
2021/07/21 05:02:45;;;;;;;;;;;538.00;2406.40;;;;;;5075438;28;19908;-74
2021/07/21 05:05:11;;;;;;;;;;;538.00;2406.40;;;;;;5088302;28;19914;-74
2021/07/21 05:07:37;;;;;;;;;;;538.00;2406.40;;;;;;5076418;28;19958;-76
2021/07/21 05:10:02;;;;;;;;;;;538.00;2406.40;;;;;;5075427;28;19904;-76
2021/07/21 05:12:28;;;;;;;;;;;538.10;2406.40;;;;;;5075511;28;20828;-78
2021/07/21 05:14:53;;;;;;;;;;;538.20;2406.40;;;;;;5075461;28;20264;-77
2021/07/21 05:17:19;;;;;;;;;;;538.20;2406.40;;;;;;5075089;28;20041;-77
2021/07/21 05:19:45;;;;;;;;;;;538.30;2406.40;;;;;;5075163;28;19904;-74
2021/07/21 05:22:10;;;;;;;;;;;538.40;2406.40;;;;;;5075185;28;19950;-75
2021/07/21 05:24:36;;;;;;;;;;;538.50;2406.40;;;;;;5074917;28;19908;-74
2021/07/21 05:27:01;;;;;;;;;;;538.50;2406.40;;;;;;5075147;28;19997;-76
2021/07/21 05:29:27;;;;;;;;;;;538.50;2406.40;;;;;;5074555;28;19916;-76
2021/07/21 05:31:52;;;;;;;;;;;538.50;2406.40;;;;;;5074992;28;19955;-74
2021/07/21 05:34:18;;;;;;;;;;;538.50;2406.40;;;;;;5074612;28;19912;-75
2021/07/21 05:36:44;;;;;;;;;;;563.20;2432.00;;;;;;5074816;28;19904;-74
2021/07/21 05:39:09;;;;;;;;;;;563.30;2432.00;;;;;;5074819;28;19912;-75
2021/07/21 05:41:36;;;;;;;;;;;563.40;2432.00;;;;;;5074627;28;20321;-74
2021/07/21 05:44:02;;;;;;;;;;;563.40;2432.00;;;;;;5075254;28;19959;-74
2021/07/21 05:46:27;;;;;;;;;;;563.40;2432.00;;;;;;5074517;28;20323;-74
2021/07/21 05:48:53;;;;;;;;;;;563.50;2432.00;;;;;;5074573;28;19987;-74
2021/07/21 05:51:19;;;;;;;;;;;563.50;2432.00;;;;;;5074294;28;19908;-74
2021/07/21 05:53:44;;;;;;;;;;;563.50;2432.00;;;;;;5074497;28;20004;-74
2021/07/21 05:56:11;;;;;;;;;;;563.60;2432.00;;;;;;5077789;28;20366;-74
2021/07/21 05:58:36;;;;;;;;;;;563.60;2432.00;;;;;;5075376;28;19904;-75
2021/07/21 06:01:02;;;;;;;;;;;563.80;2432.00;;;;;;5074375;28;20045;-75
2021/07/21 06:03:27;;;;;;;;;;;563.80;2432.00;;;;;;5074214;28;19905;-75
2021/07/21 06:05:53;;;;;;;;;;;563.90;2432.00;;;;;;5088276;28;20386;-74
2021/07/21 06:08:18;;;;;;;;;;;563.90;2432.00;;;;;;5074276;28;19908;-75
2021/07/21 06:10:44;;;;;;;;;;;564.00;2432.00;;;;;;5074072;28;19909;-74
2021/07/21 06:13:13;;;;;;;;;;;564.10;2432.00;;;;;;5074324;28;19999;-75
2021/07/21 06:15:39;;;;;;;;;;;564.10;2432.00;;;;;;5073890;28;20007;-75
2021/07/21 06:18:05;;;;;;;;;;;564.10;2432.00;;;;;;5074045;28;19905;-74
2021/07/21 06:20:30;;;;;;;;;;;564.10;2432.00;;;;;;5074072;28;19962;-77
2021/07/21 06:22:56;;;;;;;;;;;588.80;2432.00;;;;;;5073692;28;19904;-80
2021/07/21 06:25:22;;;;;;;;;;;588.90;2432.00;;;;;;5079261;28;19934;-76
2021/07/21 06:27:50;;;;;;;;;;;588.90;2432.00;;;;;;5090937;28;19915;-75
2021/07/21 06:30:16;;;;;;;;;;;589.00;2432.00;;;;;;5085213;28;19935;-75
2021/07/21 06:32:42;;;;;;;;;;;589.10;2432.00;;;;;;5087608;28;19908;-74
2021/07/21 06:35:09;;;;;;;;;;;589.20;2432.00;;;;;;5086434;28;19966;-76
2021/07/21 06:37:34;;;;;;;;;;;589.30;2432.00;;;;;;5083493;28;19946;-75
2021/07/21 06:40:00;;;;;;;;;;;589.40;2432.00;;;;;;5078337;28;19956;-75
2021/07/21 06:42:26;;;;;;;;;;;589.40;2432.00;;;;;;5081169;28;20366;-76
2021/07/21 06:44:52;;;;;;;;;;;589.30;2432.00;;;;;;5080939;28;19908;-76
2021/07/21 06:47:18;;;;;;;;;;;589.60;2432.00;;;;;;5079326;28;19904;-74
2021/07/21 06:49:43;;;;;;;;;;;589.60;2432.00;;;;;;5083086;28;20358;-74
2021/07/21 06:52:09;;;;;;;;;;;589.60;2432.00;;;;;;5078542;28;19911;-75
2021/07/21 06:54:34;;;;;;;;;;;589.60;2432.00;;;;;;5083244;28;20324;-75
2021/07/21 06:57:00;;;;;;;;;;;589.70;2432.00;;;;;;5078971;28;19905;-75
2021/07/21 06:59:28;;;;;;;;;;;614.50;2432.00;;;;;;5080977;28;19911;-78
2021/07/21 07:01:53;;;;;;;;;;;614.70;2432.00;;;;;;5080713;28;19908;-75
2021/07/21 07:04:19;;;;;;;;;;;614.80;2432.00;;;;;;5065975;28;19915;-75
2021/07/21 07:06:45;;;;;;;;;;;614.90;2432.00;;;;;;5081787;28;19908;-76
2021/07/21 07:09:10;;;;;;;;;;;615.00;2432.00;;;;;;5072863;28;20278;-76
2021/07/21 07:11:36;;;;;;;;;;;615.20;2432.00;;;;;;5073229;28;19940;-75
2021/07/21 07:14:02;;;;;;;;;;;615.20;2432.00;;;;;;5069228;28;19904;-75
2021/07/21 07:16:27;;;;;;;;;;;640.00;2432.00;;;;;;5073016;28;20002;-75
2021/07/21 07:18:53;;;;;;;;;;;615.30;2432.00;;;;;;5073039;28;19991;-75
2021/07/21 07:21:19;;;;;;;;;;;640.10;2432.00;;;;;;5073672;28;19908;-75
2021/07/21 07:23:45;;;;;;;;;;;640.40;2432.00;;;;;;5073517;28;19904;-75
2021/07/21 07:26:10;;;;;;;;;;;640.50;2432.00;;;;;;5072898;28;20397;-75
2021/07/21 07:28:36;;;;;;;;;;;640.60;2432.00;;;;;;5073029;28;20278;-75
2021/07/21 07:31:02;;;;;;;;;;;665.60;2432.00;;;;;;5072775;28;19908;-78
2021/07/21 07:33:27;;;;;;;;;;;665.70;2432.00;;;;;;5072903;28;19952;-81
2021/07/21 07:35:53;;;;;;;;;;;665.80;2432.00;;;;;;5072858;28;19908;-84
2021/07/21 07:38:18;;;;;;;;;;;665.90;2432.00;;;;;;5072792;28;19953;-86
2021/07/21 07:40:44;;;;;;;;;;;666.00;2432.00;;;;;;5072397;28;19908;-86
2021/07/21 07:43:10;;;;;;;;;;;666.00;2432.00;;;;;;5072634;28;19909;-86
2021/07/21 07:45:36;;;;;;;;;;;666.10;2432.00;;;;;;5054717;28;19912;-86
2021/07/21 07:48:02;;;;;;;;;;;666.30;2432.00;;;;;;5072526;28;19911;-86
2021/07/21 07:50:27;;;;;;;;;;;691.20;2432.00;;;;;;5072829;28;19911;-85
2021/07/21 07:52:53;;;;;;;;;;;666.50;2432.00;;;;;;5075687;28;19904;-85
2021/07/21 07:55:19;;;;;;;;;;;691.30;2432.00;;;;;;5076610;28;19912;-85
2021/07/21 07:57:44;;;;;;;;;;;691.40;2432.00;;;;;;5076863;28;19905;-85
2021/07/21 08:00:10;;;;;;;;;;;691.60;2432.00;;;;;;5076572;28;19940;-85
2021/07/21 08:02:36;;;;;;;;;;;691.90;2406.40;;;;;;5076855;28;19908;-85
2021/07/21 08:05:02;;;;;;;;;;;692.10;2406.40;;;;;;5088202;28;20258;-80
2021/07/21 08:07:32;;;;;;;;;;;692.10;2355.20;;;;;;5079015;28;20293;-80
2021/07/21 08:09:58;;;;;;;;;;;717.10;2304.00;;;;;;5076812;28;20007;-80
2021/07/21 08:12:24;;;;;;;;;;;717.20;2278.40;;;;;;5076450;28;19912;-81
2021/07/21 08:14:49;;;;;;;;;;;717.30;2252.80;;;;;;5076482;28;19904;-80
2021/07/21 08:17:15;;;;;;;;;;;717.40;2201.60;;;;;;5076587;28;19912;-77
2021/07/21 08:19:42;;;;;;;;;;;717.60;2176.00;;;;;;5076239;28;19904;-79
2021/07/21 08:22:07;;;;;;;;;;;742.40;2201.60;;;;;;5076261;28;19912;-76
2021/07/21 08:24:33;;;;;;;;;;;742.60;2099.20;;;;;;5075984;28;19909;-75
2021/07/21 08:26:59;;;;;;;;;;;742.70;2073.60;;;;;;5076060;28;19998;-74
2021/07/21 08:29:24;;;;;;;;;;;742.90;2022.40;;;;;;5075897;28;19923;-74
2021/07/21 08:31:50;;;;;;;;;;;743.00;2048.00;;;;;;5076037;28;20366;-74
2021/07/21 08:34:15;;;;;;;;;;;743.10;1996.80;;;;;;5075849;28;20346;-77
2021/07/21 08:36:41;;;;;;;;;;;743.30;1996.80;;;;;;5075823;28;19958;-76
2021/07/21 08:39:09;;;;;;;;;;;768.40;1945.60;;;;;;5075947;28;19970;-81
2021/07/21 08:41:36;;;;;;;;;;;768.30;1945.60;;;;;;5075722;28;19954;-80
2021/07/21 08:44:03;;;;;;;;;;;743.10;1945.60;;;;;;5076069;28;20045;-81
2021/07/21 08:46:29;;;;;;;;;;;743.00;1996.80;;;;;;5075988;28;19913;-76
2021/07/21 08:48:55;;;;;;;;;;;742.90;1920.00;;;;;;5066617;28;19911;-75
2021/07/21 08:51:21;;;;;;;;;;;742.80;1945.60;;;;;;5080795;28;19905;-76
2021/07/21 08:53:49;;;;;;;;;;;742.50;1945.60;;;;;;5075762;28;19912;-76
2021/07/21 08:56:18;;;;;;;;;;;717.70;1920.00;;;;;;5075667;28;20378;-78
2021/07/21 08:58:47;;;;;;;;;;;717.70;1894.40;;;;;;5075420;28;19915;-82
2021/07/21 09:01:16;;;;;;;;;;;717.60;1894.40;;;;;;5075565;28;19905;-83
2021/07/21 09:03:42;;;;;;;;;;;717.70;1894.40;;;;;;5075220;28;19911;-79
2021/07/21 09:06:08;;;;;;;;;;;717.70;1945.60;;;;;;5088989;28;19915;-77
2021/07/21 09:08:34;;;;;;;;;;;717.70;1971.20;;;;;;5075475;28;19958;-76
2021/07/21 09:11:00;;;;;;;;;;;717.70;1945.60;;;;;;5075269;28;19905;-75
2021/07/21 09:13:26;;;;;;;;;;;717.50;1971.20;;;;;;5075256;28;19951;-75
2021/07/21 09:15:51;;;;;;;;;;;717.40;1971.20;;;;;;5075171;28;20414;-74
2021/07/21 09:18:17;;;;;;;;;;;717.30;1945.60;;;;;;5075160;28;19904;-74
2021/07/21 09:20:45;;;;;;;;;;;717.30;1945.60;;;;;;5075266;28;20271;-74
2021/07/21 09:23:10;;;;;;;;;;;717.20;1920.00;;;;;;5075076;28;19905;-74
2021/07/21 09:25:37;;;;;;;;;;;717.20;1894.40;;;;;;5075016;28;19986;-74
2021/07/21 09:28:11;;;;;;;;;;;717.20;1971.20;;;;;;5075085;28;19946;-74
2021/07/21 09:30:40;;;;;;;;;;;717.10;1996.80;;;;;;5075190;28;19916;-74
2021/07/21 09:33:07;;;;;;;;;;;716.80;1945.60;;;;;;5074812;28;19927;-74
2021/07/21 09:35:34;;;;;;;;;;;716.80;1920.00;;;;;;5075119;28;19905;-74
2021/07/21 09:38:00;;;;;;;;;;;716.90;2073.60;;;;;;5075031;28;19998;-74
2021/07/21 09:40:26;;;;;;;;;;;716.90;2022.40;;;;;;5074808;28;19919;-75
2021/07/21 09:42:52;;;;;;;;;;;716.90;1996.80;;;;;;5074551;28;19925;-75
2021/07/21 09:45:19;;;;;;;;;;;717.10;1996.80;;;;;;5074605;28;19915;-74
2021/07/21 09:47:49;;;;;;;;;;;717.10;2022.40;;;;;;5074707;28;19947;-74
2021/07/21 09:50:16;;;;;;;;;;;717.10;2073.60;;;;;;5074354;28;19942;-75
2021/07/21 09:52:46;;;;;;;;;;;717.10;1996.80;;;;;;5074578;28;20451;-75
2021/07/21 09:55:13;;;;;;;;;;;717.00;1996.80;;;;;;5074372;28;19904;-74
2021/07/21 09:57:39;;;;;;;;;;;716.80;1971.20;;;;;;5074362;28;20289;-76
2021/07/21 10:00:17;;;;;;;;;;;716.80;2022.40;;;;;;5074288;28;19905;-76
2021/07/21 10:02:43;;;;;;;;;;;716.80;2022.40;;;;;;5074269;28;19911;-74
2021/07/21 10:05:08;;;;;;;;;;;716.90;2048.00;;;;;;5086809;28;19912;-79
2021/07/21 10:10:14;;;;;;;;;;;716.80;2022.40;;;;;;5074180;28;19905;-85
2021/07/21 10:12:40;;;;;;;;;;;716.80;2022.40;;;;;;5074102;28;19908;-78
2021/07/21 10:15:05;;;;;;;;;;;692.10;1971.20;;;;;;5073197;28;19911;-74
2021/07/21 10:17:31;;;;;;;;;;;691.90;1996.80;;;;;;5073828;28;19940;-75
2021/07/21 10:19:57;;;;;;;;;;;692.10;1996.80;;;;;;5074017;28;19908;-75
2021/07/21 10:22:23;;;;;;;;;;;692.10;1996.80;;;;;;5074027;28;19904;-75
2021/07/21 10:24:48;;;;;;;;;;;692.10;2048.00;;;;;;5073774;28;19912;-75
2021/07/21 10:27:15;;;;;;;;;;;692.00;2022.40;;;;;;5073905;28;19915;-75
2021/07/21 10:29:42;;;;;;;;;;;692.10;1945.60;;;;;;5073540;28;19966;-75
2021/07/21 10:32:10;;;;;;;;;;;692.10;1971.20;;;;;;5073975;28;19943;-75
2021/07/21 10:34:36;;;;;;;;;;;716.90;2073.60;;;;;;5073860;28;20294;-78
2021/07/21 10:37:01;;;;;;;;;;;716.90;2022.40;;;;;;5073717;28;19904;-81
2021/07/21 10:39:27;;;;;;;;;;;716.80;1945.60;;;;;;5073339;28;19948;-75
2021/07/21 10:41:53;;;;;;;;;;;716.90;1971.20;;;;;;5073635;28;20434;-76
2021/07/21 10:44:19;;;;;;;;;;;692.10;1971.20;;;;;;5073439;28;20413;-75
2021/07/21 10:46:51;;;;;;;;;;;692.10;1996.80;;;;;;5073655;28;19904;-75
2021/07/21 10:49:23;;;;;;;;;;;716.80;1945.60;;;;;;5074002;28;19909;-75
2021/07/21 11:00:29;;;;;;;;;;;716.80;1971.20;;;;;;5073147;28;19912;-76
2021/07/21 11:03:13;;;;;;;;;;;716.80;1996.80;;;;;;5073270;28;19915;-76
2021/07/21 11:05:50;;;;;;;;;;;716.80;1996.80;;;;;;5087198;28;19915;-75
2021/07/21 11:08:17;;;;;;;;;;;716.80;2022.40;;;;;;5073196;28;19947;-82
2021/07/21 11:10:43;;;;;;;;;;;716.80;2022.40;;;;;;5072933;28;19910;-83
2021/07/21 11:13:10;;;;;;;;;;;716.90;2073.60;;;;;;5073172;28;19908;-86
2021/07/21 11:15:47;;;;;;;;;;;716.90;2048.00;;;;;;5072975;28;19908;-86
2021/07/21 11:18:21;;;;;;;;;;;716.90;2073.60;;;;;;5073092;28;19908;-86
2021/07/21 11:20:56;;;;;;;;;;;716.90;2022.40;;;;;;5072919;28;20367;-86
2021/07/21 11:23:40;;;;;;;;;;;716.90;2048.00;;;;;;5054962;28;19931;-85
2021/07/21 11:26:24;;;;;;;;;;;716.80;1996.80;;;;;;5072594;28;19961;-85
2021/07/21 11:28:50;;;;;;;;;;;692.10;1971.20;;;;;;5072856;28;19904;-81
2021/07/21 11:31:16;;;;;;;;;;;716.80;2048.00;;;;;;5072738;28;20255;-81
2021/07/21 11:33:41;;;;;;;;;;;716.80;2073.60;;;;;;5073092;28;19905;-80
2021/07/21 11:36:08;;;;;;;;;;;716.80;2048.00;;;;;;5072746;28;19956;-79
2021/07/21 11:38:48;;;;;;;;;;;716.80;2022.40;;;;;;5072838;28;19908;-78
2021/07/21 11:41:32;;;;;;;;;;;692.10;2022.40;;;;;;5072692;28;19908;-75
2021/07/21 11:44:02;;;;;;;;;;;692.10;1945.60;;;;;;5072825;28;20017;-79
2021/07/21 11:46:28;;;;;;;;;;;692.00;1971.20;;;;;;5072968;28;19974;-76
2021/07/21 11:48:53;;;;;;;;;;;691.80;1996.80;;;;;;5072900;28;19908;-82
2021/07/21 11:51:19;;;;;;;;;;;691.70;1996.80;;;;;;5072693;28;20329;-82
2021/07/21 11:53:47;;;;;;;;;;;691.70;1971.20;;;;;;5072871;28;20397;-82
2021/07/21 11:56:15;;;;;;;;;;;691.80;2022.40;;;;;;5072719;28;19904;-79
2021/07/21 11:58:40;;;;;;;;;;;691.80;1971.20;;;;;;5072502;28;19920;-82
2021/07/21 12:01:06;;;;;;;;;;;691.70;1996.80;;;;;;5054835;28;19908;-82
2021/07/21 12:03:48;;;;;;;;;;;691.70;1996.80;;;;;;5072683;28;19904;-83
2021/07/21 12:06:23;;;;;;;;;;;691.70;2022.40;;;;;;5054578;28;19908;-76
2021/07/21 12:08:50;;;;;;;;;;;691.70;1996.80;;;;;;5072588;28;19916;-82
2021/07/21 12:11:17;;;;;;;;;;;691.80;2048.00;;;;;;5054663;28;20374;-82
2021/07/21 12:13:43;;;;;;;;;;;691.80;2048.00;;;;;;5072630;28;19908;-79
2021/07/21 12:16:08;;;;;;;;;;;691.90;2022.40;;;;;;5072459;28;19936;-79
2021/07/21 12:18:34;;;;;;;;;;;691.90;1996.80;;;;;;5072536;28;19911;-81
2021/07/21 12:21:08;;;;;;;;;;;692.00;2022.40;;;;;;5072561;28;19905;-79
2021/07/21 12:23:33;;;;;;;;;;;692.00;1996.80;;;;;;5072497;28;19904;-80
2021/07/21 12:26:06;;;;;;;;;;;691.90;1971.20;;;;;;5072123;28;20358;-75
2021/07/21 12:28:32;;;;;;;;;;;692.00;2022.40;;;;;;5072264;28;20057;-80
2021/07/21 12:30:57;;;;;;;;;;;692.00;1945.60;;;;;;5068366;28;19985;-79
2021/07/21 12:33:23;;;;;;;;;;;691.90;1971.20;;;;;;5072406;28;19904;-80
2021/07/21 12:35:49;;;;;;;;;;;691.80;1996.80;;;;;;5072404;28;19913;-80
2021/07/21 12:38:14;;;;;;;;;;;691.70;1971.20;;;;;;5073854;28;20278;-83
2021/07/21 12:40:41;;;;;;;;;;;691.80;2099.20;;;;;;5058180;28;19909;-84
2021/07/21 12:43:08;;;;;;;;;;;691.80;1920.00;;;;;;5057955;28;19969;-84
2021/07/21 12:45:33;;;;;;;;;;;691.80;1945.60;;;;;;5067278;28;19915;-85
2021/07/21 12:47:59;;;;;;;;;;;691.80;2022.40;;;;;;5080671;28;20002;-83
2021/07/21 12:50:27;;;;;;;;;;;691.80;1996.80;;;;;;5080879;28;19904;-84
2021/07/21 12:53:06;;;;;;;;;;;691.90;1996.80;;;;;;5078040;28;19912;-84
2021/07/21 12:55:34;;;;;;;;;;;691.80;1996.80;;;;;;5060094;28;20377;-80
2021/07/21 12:58:00;;;;;;;;;;;691.80;1945.60;;;;;;5092961;28;19912;-80
2021/07/21 13:00:27;;;;;;;;;;;691.90;1945.60;;;;;;5095738;28;19908;-77
2021/07/21 13:03:06;;;;;;;;;;;691.90;2048.00;;;;;;5091151;28;19915;-76
2021/07/21 13:05:41;;;;;;;;;;;691.80;1971.20;;;;;;5094823;28;19911;-80
2021/07/21 13:08:06;;;;;;;;;;;691.90;1996.80;;;;;;5084478;28;19911;-81
2021/07/21 13:10:33;;;;;;;;;;;691.90;2022.40;;;;;;5074253;28;19904;-84
2021/07/21 13:12:58;;;;;;;;;;;692.00;2048.00;;;;;;5091931;28;19904;-84
2021/07/21 13:15:25;;;;;;;;;;;691.90;1971.20;;;;;;5093556;28;20010;-86
2021/07/21 13:18:10;;;;;;;;;;;691.90;2022.40;;;;;;5060899;28;19919;-77
2021/07/21 13:20:42;;;;;;;;;;;692.00;1996.80;;;;;;5093266;28;19920;-86
2021/07/21 13:23:17;;;;;;;;;;;691.90;2022.40;;;;;;5091779;28;19904;-85
2021/07/21 13:25:43;;;;;;;;;;;691.90;1971.20;;;;;;5093242;28;19908;-86
2021/07/21 13:28:18;;;;;;;;;;;691.90;2022.40;;;;;;5090703;28;20270;-86
2021/07/21 13:30:43;;;;;;;;;;;692.00;1971.20;;;;;;5092864;28;19916;-76
2021/07/21 13:33:09;;;;;;;;;;;691.90;1971.20;;;;;;5090487;28;19918;-86
2021/07/21 13:35:34;;;;;;;;;;;691.90;1971.20;;;;;;5093054;28;20349;-86
2021/07/21 13:38:00;;;;;;;;;;;691.90;2048.00;;;;;;5090443;28;19912;-86
2021/07/21 13:40:26;;;;;;;;;;;691.90;1996.80;;;;;;5067952;28;19911;-86
2021/07/21 13:43:04;;;;;;;;;;;691.90;1996.80;;;;;;5087040;28;20016;-86
2021/07/21 13:45:29;;;;;;;;;;;691.90;1996.80;;;;;;5083594;28;19912;-85
2021/07/21 13:47:58;;;;;;;;;;;691.90;2022.40;;;;;;5092097;28;19904;-84
2021/07/21 13:50:24;;;;;;;;;;;691.90;2048.00;;;;;;5091582;28;19946;-83
2021/07/21 13:53:00;;;;;;;;;;;691.90;2022.40;;;;;;5092752;28;19966;-86
2021/07/21 13:55:25;;;;;;;;;;;691.90;1996.80;;;;;;5090179;28;19911;-85